Alfred, North Dakota
Current Conditions -  °F | °C
As of 11:56 AM on Thursday 30 Oct 2014 (Local Time) from KJMS Reporting Station
Overcast Overcast  
Wind Chill: -4°   Ceiling: 1200
Heat Index:   Visibility: 10mi
Dew Point: -1°   Wind: 20mph
Humidity: 82%   Direction: 360°N
Pressure: 30.29"   Gusts: 25mph
Location:  46.4882°N, 98.8135°W
Report Text: KJMS 301656Z AUTO 36017G22KT 10SM OVC012 02/M01 A3029 RMK AO2 SLP272 T00221006
Loading
Personal Weather Stations






























Interactive Weather Map
Tropical Storm Tracking
New forecast layout! Learn more

10-Day Weather Forecast

Advertisements
Track Severe Weather on mobile